createdAt,value
2023-04-14T00:00:24.035Z,5.71
2023-04-14T00:01:24.029Z,5.73
2023-04-14T00:02:24.182Z,5.72
2023-04-14T00:03:24.262Z,5.69
2023-04-14T00:04:24.288Z,5.73
2023-04-14T00:05:23.994Z,5.68
2023-04-14T00:06:23.989Z,5.75
2023-04-14T00:07:23.982Z,5.66
2023-04-14T00:08:23.998Z,5.59
2023-04-14T00:09:23.963Z,5.57
2023-04-14T00:10:23.964Z,5.48
2023-04-14T00:11:23.952Z,5.41
2023-04-14T00:12:23.950Z,5.47
2023-04-14T00:13:23.966Z,5.36
2023-04-14T00:14:23.948Z,5.23
2023-04-14T00:15:23.918Z,5.29
2023-04-14T00:16:23.945Z,5.29
2023-04-14T00:17:23.928Z,5.20
2023-04-14T00:18:23.961Z,5.18
2023-04-14T00:19:23.903Z,4.99
2023-04-14T00:20:23.898Z,5.07
2023-04-14T00:21:23.873Z,5.12
2023-04-14T00:22:23.866Z,5.07
2023-04-14T00:23:23.898Z,5.00
2023-04-14T00:24:23.861Z,4.92
2023-04-14T00:25:23.846Z,4.97
2023-04-14T00:26:23.844Z,4.94
2023-04-14T00:27:23.838Z,4.96
2023-04-14T00:28:23.855Z,4.90
2023-04-14T00:29:24.836Z,5.04
2023-04-14T00:30:23.814Z,4.96
2023-04-14T00:31:23.807Z,4.96
2023-04-14T00:32:23.841Z,5.00
2023-04-14T00:33:23.815Z,5.10
2023-04-14T00:34:23.780Z,4.93
2023-04-14T00:35:23.791Z,5.04
2023-04-14T00:36:23.763Z,4.94
2023-04-14T00:37:23.766Z,4.93
2023-04-14T00:38:23.781Z,4.94
2023-04-14T00:39:23.755Z,4.90
2023-04-14T00:40:23.731Z,5.00
2023-04-14T00:41:23.728Z,4.96
2023-04-14T00:42:23.716Z,4.99
2023-04-14T00:43:23.739Z,5.00
2023-04-14T00:44:23.707Z,4.99
2023-04-14T00:45:23.694Z,5.02
2023-04-14T00:46:23.771Z,4.96
2023-04-14T00:47:23.717Z,5.07
2023-04-14T00:48:23.690Z,5.04
2023-04-14T00:49:23.662Z,5.15
2023-04-14T00:50:23.688Z,5.10
2023-04-14T00:51:23.651Z,5.20
2023-04-14T00:52:23.633Z,5.25
2023-04-14T00:53:23.651Z,5.21
2023-04-14T00:54:23.616Z,5.29
2023-04-14T00:55:23.609Z,5.21
2023-04-14T00:56:23.601Z,5.20
2023-04-14T00:57:23.601Z,5.21
2023-04-14T00:58:23.620Z,5.17
2023-04-14T00:59:23.577Z,5.14
2023-04-14T01:00:23.576Z,5.15
2023-04-14T01:01:23.582Z,5.15
2023-04-14T01:02:24.694Z,5.12
2023-04-14T01:03:23.654Z,5.15
2023-04-14T01:04:29.256Z,5.11
2023-04-14T01:05:24.656Z,5.20
2023-04-14T01:06:23.547Z,5.23
2023-04-14T01:07:23.515Z,5.25
2023-04-14T01:08:23.560Z,5.23
2023-04-14T01:09:23.513Z,5.30
2023-04-14T01:10:23.501Z,5.26
2023-04-14T01:11:23.481Z,5.23
2023-04-14T01:12:23.478Z,5.18
2023-04-14T01:13:23.502Z,5.20
2023-04-14T01:14:23.468Z,5.14
2023-04-14T01:15:23.461Z,5.32
2023-04-14T01:16:23.506Z,5.30
2023-04-14T01:17:23.501Z,5.38
2023-04-14T01:18:23.489Z,5.41
2023-04-14T01:19:23.429Z,5.38
2023-04-14T01:20:23.425Z,5.35
2023-04-14T01:21:23.446Z,5.43
2023-04-14T01:22:23.425Z,5.26
2023-04-14T01:23:23.435Z,5.28
2023-04-14T01:24:23.404Z,5.25
2023-04-14T01:25:23.403Z,5.21
2023-04-14T01:26:23.376Z,5.30
2023-04-14T01:27:23.377Z,5.30
2023-04-14T01:28:23.386Z,5.30
2023-04-14T01:29:23.367Z,5.25
2023-04-14T01:30:23.351Z,5.20
2023-04-14T01:31:23.408Z,5.23
2023-04-14T01:32:23.352Z,5.17
2023-04-14T01:33:23.347Z,5.29
2023-04-14T01:34:23.332Z,5.20
2023-04-14T01:35:23.306Z,5.18
2023-04-14T01:36:23.302Z,5.26
2023-04-14T01:37:23.299Z,5.25
2023-04-14T01:38:23.321Z,5.25
2023-04-14T01:39:23.292Z,5.26
2023-04-14T01:40:23.277Z,5.18
2023-04-14T01:41:23.267Z,5.26
2023-04-14T01:42:23.273Z,5.32
2023-04-14T01:43:23.276Z,5.32
2023-04-14T01:44:23.250Z,5.30
2023-04-14T01:45:23.247Z,5.23
2023-04-14T01:46:23.229Z,5.32
2023-04-14T01:47:23.270Z,5.26
2023-04-14T01:48:23.239Z,5.35
2023-04-14T01:49:23.238Z,5.26
2023-04-14T01:50:23.209Z,5.26
2023-04-14T01:51:23.206Z,5.36
2023-04-14T01:52:23.188Z,5.30
2023-04-14T01:53:23.197Z,5.28
2023-04-14T01:54:23.162Z,5.33
2023-04-14T01:55:23.160Z,5.28
2023-04-14T01:56:23.152Z,5.33
2023-04-14T01:57:23.196Z,5.23
2023-04-14T01:58:23.167Z,5.28
2023-04-14T01:59:23.139Z,5.30
2023-04-14T02:00:23.127Z,5.32
2023-04-14T02:01:23.126Z,5.30
2023-04-14T02:02:23.275Z,5.21
2023-04-14T02:03:23.203Z,5.25
2023-04-14T02:04:23.144Z,5.12
2023-04-14T02:05:23.090Z,5.11
2023-04-14T02:06:23.114Z,5.23
2023-04-14T02:07:23.076Z,5.26
2023-04-14T02:08:23.106Z,5.23
2023-04-14T02:09:23.072Z,5.26
2023-04-14T02:10:23.052Z,5.30
2023-04-14T02:11:23.054Z,5.25
2023-04-14T02:12:23.037Z,5.21
2023-04-14T02:13:23.060Z,5.26
2023-04-14T02:14:23.016Z,5.20
2023-04-14T02:15:23.025Z,5.32
2023-04-14T02:16:23.038Z,5.15
2023-04-14T02:17:23.023Z,5.32
2023-04-14T02:18:23.011Z,5.29
2023-04-14T02:19:22.986Z,5.35
2023-04-14T02:20:22.985Z,5.29
2023-04-14T02:21:22.973Z,5.25
2023-04-14T02:22:22.973Z,5.35
2023-04-14T02:23:23.006Z,5.29
2023-04-14T02:24:22.953Z,5.38
2023-04-14T02:25:22.940Z,5.32
2023-04-14T02:26:22.927Z,5.38
2023-04-14T02:27:22.916Z,5.29
2023-04-14T02:28:22.943Z,5.23
2023-04-14T02:29:22.907Z,5.26
2023-04-14T02:30:22.897Z,5.26
2023-04-14T02:31:22.927Z,5.11
2023-04-14T02:32:22.952Z,5.23
2023-04-14T02:33:22.948Z,5.11
2023-04-14T02:34:22.873Z,5.21
2023-04-14T02:35:22.856Z,5.10
2023-04-14T02:36:22.852Z,5.23
2023-04-14T02:37:22.849Z,5.11
2023-04-14T02:38:22.864Z,5.12
2023-04-14T02:39:22.833Z,5.14
2023-04-14T02:40:22.827Z,5.02
2023-04-14T02:41:22.825Z,5.07
2023-04-14T02:42:22.808Z,5.08
2023-04-14T02:43:22.812Z,5.07
2023-04-14T02:44:22.809Z,5.04
2023-04-14T02:45:22.798Z,5.08
2023-04-14T02:46:22.811Z,4.97
2023-04-14T02:47:22.814Z,4.86
2023-04-14T02:48:22.792Z,4.82
2023-04-14T02:49:22.833Z,4.84
2023-04-14T02:50:22.767Z,4.82
2023-04-14T02:51:22.750Z,4.89
2023-04-14T02:52:22.737Z,4.89
2023-04-14T02:53:22.737Z,4.84
2023-04-14T02:54:22.740Z,4.89
2023-04-14T02:55:22.718Z,4.99
2023-04-14T02:56:22.724Z,4.92
2023-04-14T02:57:22.711Z,4.86
2023-04-14T02:58:22.691Z,4.90
2023-04-14T02:59:22.722Z,5.02
2023-04-14T03:00:22.699Z,4.96
2023-04-14T03:01:22.704Z,5.00
2023-04-14T03:02:22.757Z,4.99
2023-04-14T03:03:22.695Z,4.96
2023-04-14T03:04:22.712Z,4.97
2023-04-14T03:05:22.633Z,5.05
2023-04-14T03:06:22.639Z,5.07
2023-04-14T03:07:22.631Z,4.99
2023-04-14T03:08:22.656Z,5.02
2023-04-14T03:09:22.645Z,5.05
2023-04-14T03:10:22.603Z,4.93
2023-04-14T03:11:22.598Z,4.80
2023-04-14T03:12:22.578Z,4.74
2023-04-14T03:13:22.581Z,4.71
2023-04-14T03:14:22.597Z,4.67
2023-04-14T03:15:22.561Z,4.67
2023-04-14T03:16:22.712Z,4.60
2023-04-14T03:17:22.563Z,4.58
2023-04-14T03:18:22.534Z,4.62
2023-04-14T03:19:22.562Z,4.63
2023-04-14T03:20:22.521Z,4.60
2023-04-14T03:21:22.512Z,4.71
2023-04-14T03:22:22.510Z,4.68
2023-04-14T03:23:22.497Z,4.66
2023-04-14T03:24:22.510Z,4.68
2023-04-14T03:25:22.500Z,4.63
2023-04-14T03:26:22.478Z,4.60
2023-04-14T03:27:22.472Z,4.66
2023-04-14T03:28:22.454Z,4.59
2023-04-14T03:29:22.481Z,4.53
2023-04-14T03:30:22.450Z,4.48
2023-04-14T03:31:22.492Z,4.41
2023-04-14T03:32:22.462Z,4.34
2023-04-14T03:33:22.426Z,4.45
2023-04-14T03:34:22.441Z,4.44
2023-04-14T03:35:22.428Z,4.31
2023-04-14T03:36:22.400Z,4.32
2023-04-14T03:37:22.390Z,4.38
2023-04-14T03:38:22.391Z,4.38
2023-04-14T03:39:22.413Z,4.37
2023-04-14T03:40:22.368Z,4.38
2023-04-14T03:41:22.359Z,4.28
2023-04-14T03:42:22.353Z,4.34
2023-04-14T03:43:22.348Z,4.32
2023-04-14T03:44:22.359Z,4.32
2023-04-14T03:45:22.332Z,4.23
2023-04-14T03:46:22.349Z,4.13
2023-04-14T03:47:22.331Z,4.13
2023-04-14T03:48:22.308Z,4.16
2023-04-14T03:49:22.324Z,4.22
2023-04-14T03:50:22.301Z,4.19
2023-04-14T03:51:22.308Z,4.16
2023-04-14T03:52:22.282Z,4.16
2023-04-14T03:53:22.274Z,4.17
2023-04-14T03:54:22.309Z,4.13
2023-04-14T03:55:22.262Z,4.19
2023-04-14T03:56:22.261Z,4.10
2023-04-14T03:57:22.241Z,4.13
2023-04-14T03:58:22.238Z,4.06
2023-04-14T03:59:22.263Z,4.12
2023-04-14T04:00:22.321Z,4.10
2023-04-14T04:01:22.297Z,4.10
2023-04-14T04:02:22.557Z,4.05
2023-04-14T04:03:22.380Z,4.10
2023-04-14T04:04:22.300Z,4.17
2023-04-14T04:05:22.225Z,4.14
2023-04-14T04:06:22.174Z,4.10
2023-04-14T04:07:22.154Z,4.01
2023-04-14T04:08:22.157Z,4.06
2023-04-14T04:09:22.205Z,4.05
2023-04-14T04:10:22.161Z,4.04
2023-04-14T04:11:22.157Z,4.01
2023-04-14T04:12:22.145Z,4.01
2023-04-14T04:13:22.117Z,4.12
2023-04-14T04:14:22.116Z,4.14
2023-04-14T04:15:22.138Z,4.12
2023-04-14T04:16:22.150Z,4.10
2023-04-14T04:17:22.141Z,4.22
2023-04-14T04:18:22.076Z,4.17
2023-04-14T04:19:22.097Z,4.17
2023-04-14T04:20:22.082Z,4.16
2023-04-14T04:21:22.054Z,4.19
2023-04-14T04:22:22.039Z,4.12
2023-04-14T04:23:22.044Z,4.13
2023-04-14T04:24:22.072Z,4.16
2023-04-14T04:25:22.035Z,4.14
2023-04-14T04:26:22.024Z,4.19
2023-04-14T04:27:28.235Z,4.30
2023-04-14T04:28:24.001Z,4.14
2023-04-14T04:29:22.024Z,4.26
2023-04-14T04:30:21.998Z,4.22
2023-04-14T04:31:21.990Z,4.26
2023-04-14T04:32:22.088Z,4.26
2023-04-14T04:33:21.956Z,4.26
2023-04-14T04:34:21.976Z,4.13
2023-04-14T04:35:21.941Z,4.19
2023-04-14T04:36:21.938Z,4.16
2023-04-14T04:37:21.933Z,4.26
2023-04-14T04:38:21.917Z,4.31
2023-04-14T04:39:21.941Z,4.31
2023-04-14T04:40:21.911Z,4.26
2023-04-14T04:41:21.904Z,4.35
2023-04-14T04:42:21.883Z,4.28
2023-04-14T04:43:21.886Z,4.31
2023-04-14T04:44:21.903Z,4.37
2023-04-14T04:45:21.869Z,4.26
2023-04-14T04:46:21.933Z,4.30
2023-04-14T04:47:21.907Z,4.31
2023-04-14T04:48:21.855Z,4.31
2023-04-14T04:49:21.860Z,4.48
2023-04-14T04:50:21.842Z,4.35
2023-04-14T04:51:21.840Z,4.44
2023-04-14T04:52:21.822Z,4.42
2023-04-14T04:54:57.756Z,4.31
2023-04-14T04:55:57.767Z,4.24
2023-04-14T04:56:57.760Z,4.19
2023-04-14T04:57:57.748Z,4.19
2023-04-14T04:58:57.736Z,4.13
2023-04-14T04:59:57.757Z,4.20
2023-04-14T05:00:57.730Z,4.22
2023-04-14T05:01:57.858Z,4.26
2023-04-14T05:02:59.106Z,4.30
2023-04-14T05:03:58.857Z,4.20
2023-04-14T05:04:58.847Z,4.08
2023-04-14T05:05:58.815Z,4.14
2023-04-14T05:06:58.814Z,3.96
2023-04-14T05:07:58.810Z,3.96
2023-04-14T05:08:58.940Z,3.91
2023-04-14T05:09:58.853Z,3.94
2023-04-14T05:10:58.787Z,3.92
2023-04-14T05:11:58.783Z,3.95
2023-04-14T05:12:58.774Z,3.95
2023-04-14T05:13:58.834Z,3.88
2023-04-14T05:14:58.778Z,3.91
2023-04-14T05:15:58.779Z,3.92
2023-04-14T05:16:58.735Z,3.91
2023-04-14T05:17:58.750Z,3.80
2023-04-14T05:18:58.978Z,3.83
2023-04-14T05:19:58.740Z,3.87
2023-04-14T05:20:58.710Z,3.83
2023-04-14T05:21:58.698Z,3.83
2023-04-14T05:22:58.710Z,3.91
2023-04-14T05:23:58.682Z,3.84
2023-04-14T05:24:58.690Z,3.83
2023-04-14T05:26:14.408Z,3.62
2023-04-14T05:27:13.711Z,3.63
2023-04-14T05:28:00.654Z,3.66
2023-04-14T05:28:58.744Z,3.59
2023-04-14T05:29:58.675Z,3.62
2023-04-14T05:31:00.610Z,3.50
2023-04-14T05:31:58.611Z,3.47
2023-04-14T05:32:58.645Z,3.42
2023-04-14T05:33:58.798Z,3.53
2023-04-14T05:34:58.664Z,3.55
2023-04-14T05:35:58.622Z,3.48
2023-04-14T05:36:58.618Z,3.56
2023-04-14T05:37:58.570Z,3.65
2023-04-14T05:38:58.633Z,3.59
2023-04-14T05:39:58.606Z,3.51
2023-04-14T05:40:58.548Z,3.56
2023-04-14T05:41:58.540Z,3.53
2023-04-14T05:42:58.537Z,3.62
2023-04-14T05:43:58.587Z,3.68
2023-04-14T05:44:58.554Z,3.65
2023-04-14T05:45:58.521Z,3.63
2023-04-14T05:46:58.545Z,3.58
2023-04-14T05:47:58.524Z,3.68
2023-04-14T05:48:58.609Z,3.53
2023-04-14T05:49:58.566Z,3.68
2023-04-14T05:50:58.488Z,3.66
2023-04-14T05:51:58.484Z,3.66
2023-04-14T05:52:58.465Z,3.77
2023-04-14T05:53:58.614Z,3.78
2023-04-14T05:54:58.484Z,3.70
2023-04-14T05:55:58.461Z,3.74
2023-04-14T05:56:58.442Z,3.80
2023-04-14T05:57:58.446Z,3.74
2023-04-14T05:58:58.445Z,3.59
2023-04-14T05:59:58.510Z,3.66
2023-04-14T06:00:58.419Z,3.62
2023-04-14T06:01:58.421Z,3.73
2023-04-14T06:02:58.561Z,3.68
2023-04-14T06:03:58.625Z,3.76
2023-04-14T06:04:58.461Z,3.58
2023-04-14T06:05:58.377Z,3.66
2023-04-14T06:06:58.362Z,3.68
2023-04-14T06:07:58.350Z,3.58
2023-04-14T06:08:58.448Z,3.62
2023-04-14T06:09:58.409Z,3.62
2023-04-14T06:10:58.330Z,3.68
2023-04-14T06:11:58.317Z,3.58
2023-04-14T06:12:58.319Z,3.70
2023-04-14T06:13:58.351Z,3.65
2023-04-14T06:14:58.354Z,3.59
2023-04-14T06:15:58.305Z,3.68
2023-04-14T06:16:58.306Z,3.70
2023-04-14T06:17:58.292Z,3.65
2023-04-14T06:18:58.361Z,3.69
2023-04-14T06:19:58.303Z,3.50
2023-04-14T06:20:58.264Z,3.65
2023-04-14T06:21:58.244Z,3.55
2023-04-14T06:22:58.243Z,3.66
2023-04-14T06:23:58.242Z,3.59
2023-04-14T06:24:58.289Z,3.68
2023-04-14T06:25:58.229Z,3.69
2023-04-14T06:26:58.211Z,3.69
2023-04-14T06:27:58.205Z,3.68
2023-04-14T06:28:58.358Z,3.69
2023-04-14T06:29:58.217Z,3.84
2023-04-14T06:30:58.221Z,3.86
2023-04-14T06:31:58.212Z,3.78
2023-04-14T06:32:58.235Z,3.69
2023-04-14T06:33:58.294Z,3.63
2023-04-14T06:34:58.190Z,3.68
2023-04-14T06:35:58.141Z,3.83
2023-04-14T06:36:58.144Z,3.95
2023-04-14T06:37:58.135Z,3.86
2023-04-14T06:38:58.268Z,3.98
2023-04-14T06:39:58.172Z,3.94
2023-04-14T06:40:58.104Z,3.99
2023-04-14T06:41:58.108Z,3.94
2023-04-14T06:42:58.107Z,3.94
2023-04-14T06:43:58.085Z,4.12
2023-04-14T06:44:58.114Z,4.19
2023-04-14T06:45:58.124Z,4.19
2023-04-14T06:46:58.084Z,4.26
2023-04-14T06:47:58.066Z,4.23
2023-04-14T06:48:58.054Z,4.42
2023-04-14T06:49:58.086Z,4.50
2023-04-14T06:50:58.039Z,4.52
2023-04-14T06:51:58.046Z,4.67
2023-04-14T06:52:58.018Z,4.73
2023-04-14T06:53:58.014Z,4.82
2023-04-14T06:54:58.022Z,4.82
2023-04-14T06:55:58.193Z,4.82
2023-04-14T06:57:00.035Z,4.97
2023-04-14T06:57:57.987Z,5.15
2023-04-14T06:58:57.969Z,5.26
2023-04-14T06:59:57.993Z,5.41
2023-04-14T07:00:57.988Z,5.32
2023-04-14T07:01:58.085Z,5.43
2023-04-14T07:02:58.134Z,5.38
2023-04-14T07:03:58.031Z,5.35
2023-04-14T07:04:58.051Z,5.47
2023-04-14T07:05:57.921Z,5.61
2023-04-14T07:06:57.931Z,5.66
2023-04-14T07:07:57.899Z,5.68
2023-04-14T07:08:57.902Z,5.76
2023-04-14T07:09:57.945Z,5.69
2023-04-14T07:10:57.872Z,5.76
2023-04-14T07:11:57.891Z,5.90
2023-04-14T07:12:57.877Z,5.87
2023-04-14T07:13:57.863Z,5.86
2023-04-14T07:14:57.879Z,5.91
2023-04-14T07:15:57.860Z,5.99
2023-04-14T07:16:57.832Z,6.04
2023-04-14T07:17:59.916Z,5.91
2023-04-14T07:18:58.814Z,5.89
2023-04-14T07:19:57.837Z,5.86
2023-04-14T07:20:57.800Z,5.93
2023-04-14T07:21:58.489Z,6.04
2023-04-14T07:22:58.794Z,6.01
2023-04-14T07:23:57.774Z,6.08
2023-04-14T07:24:57.802Z,6.16
2023-04-14T07:25:57.789Z,6.26
2023-04-14T07:26:57.779Z,6.44
2023-04-14T07:28:03.157Z,6.51
2023-04-14T07:28:59.736Z,6.51
2023-04-14T07:29:57.763Z,6.28
2023-04-14T07:30:57.787Z,6.35
2023-04-14T07:31:57.719Z,6.36
2023-04-14T07:32:57.783Z,6.28
2023-04-14T07:33:57.709Z,6.30
2023-04-14T07:34:58.976Z,6.42
2023-04-14T07:36:03.308Z,6.44
2023-04-14T07:36:59.710Z,6.31
2023-04-14T07:37:57.679Z,6.17
2023-04-14T07:38:57.672Z,6.05
2023-04-14T07:39:57.686Z,5.98
2023-04-14T07:40:57.659Z,5.80
2023-04-14T07:41:57.645Z,5.87
2023-04-14T07:42:57.639Z,5.86
2023-04-14T07:43:57.630Z,5.86
2023-04-14T07:44:57.650Z,6.04
2023-04-14T07:45:57.617Z,6.20
2023-04-14T07:46:57.700Z,6.26
2023-04-14T07:47:57.916Z,6.16
2023-04-14T07:48:58.595Z,6.12
2023-04-14T07:49:57.603Z,6.16
2023-04-14T07:50:58.425Z,5.98
2023-04-14T07:51:57.567Z,5.97
2023-04-14T07:52:57.556Z,6.05
2023-04-14T07:53:57.555Z,6.19
2023-04-14T07:54:57.579Z,6.24
2023-04-14T07:55:57.541Z,6.46
2023-04-14T07:56:57.576Z,6.46
2023-04-14T07:57:58.344Z,6.60
2023-04-14T07:58:57.529Z,6.70
2023-04-14T07:59:57.550Z,6.77
2023-04-14T08:00:57.630Z,6.69
2023-04-14T08:01:57.601Z,6.84
2023-04-14T08:02:57.623Z,6.75
2023-04-14T08:03:57.707Z,6.59
2023-04-14T08:04:57.569Z,6.46
2023-04-14T08:05:57.485Z,6.56
2023-04-14T08:06:57.461Z,6.70
2023-04-14T08:07:57.455Z,6.75
2023-04-14T08:08:57.446Z,6.66
2023-04-14T08:09:57.456Z,6.85
2023-04-14T08:10:57.419Z,6.93
2023-04-14T08:11:57.424Z,6.92
2023-04-14T08:12:57.477Z,7.13
2023-04-14T08:13:57.408Z,7.24
2023-04-14T08:14:57.417Z,7.47
2023-04-14T08:15:58.400Z,7.39
2023-04-14T08:16:57.386Z,7.50
2023-04-14T08:17:57.431Z,7.61
2023-04-14T08:18:58.346Z,7.77
2023-04-14T08:19:58.406Z,7.76
2023-04-14T08:20:57.364Z,7.79
2023-04-14T08:21:57.402Z,7.94
2023-04-14T08:22:57.365Z,7.97
2023-04-14T08:23:57.322Z,8.09
2023-04-14T08:24:57.359Z,8.15
2023-04-14T08:25:57.309Z,8.01
2023-04-14T08:26:57.294Z,7.94
2023-04-14T08:27:58.308Z,7.94
2023-04-14T08:28:57.287Z,8.05
2023-04-14T08:29:57.283Z,8.01
2023-04-14T08:30:57.344Z,8.30
2023-04-14T08:31:57.311Z,8.42
2023-04-14T08:32:59.228Z,8.44
2023-04-14T08:33:57.282Z,8.56
2023-04-14T08:35:35.378Z,8.61
2023-04-14T08:35:59.690Z,8.78
2023-04-14T08:36:57.225Z,8.87
2023-04-14T08:37:57.232Z,9.16
2023-04-14T08:38:57.256Z,9.26
2023-04-14T08:39:57.208Z,9.32
2023-04-14T08:40:57.229Z,9.28
2023-04-14T08:41:57.188Z,9.25
2023-04-14T08:42:57.190Z,9.29
2023-04-14T08:43:57.179Z,9.48
2023-04-14T08:44:57.187Z,9.64
2023-04-14T08:45:57.231Z,9.69
2023-04-14T08:46:57.151Z,9.80
2023-04-14T08:47:57.169Z,10.01
2023-04-14T08:48:57.135Z,9.98
2023-04-14T08:49:57.139Z,10.13
2023-04-14T08:50:57.150Z,10.23
2023-04-14T08:51:57.139Z,10.12
2023-04-14T08:52:57.132Z,9.91
2023-04-14T08:53:57.157Z,10.04
2023-04-14T08:54:57.096Z,10.09
2023-04-14T08:55:58.543Z,10.04
2023-04-14T08:56:58.143Z,9.89
2023-04-14T08:57:57.075Z,9.91
2023-04-14T08:58:57.062Z,10.01
2023-04-14T08:59:57.071Z,10.02
2023-04-14T09:00:57.101Z,10.17
2023-04-14T09:01:57.347Z,10.23
2023-04-14T09:02:57.068Z,10.07
2023-04-14T09:03:58.247Z,10.10
2023-04-14T09:04:57.163Z,9.98
2023-04-14T09:05:57.032Z,9.99
2023-04-14T09:06:57.010Z,9.92
2023-04-14T09:07:56.993Z,10.02
2023-04-14T09:08:56.990Z,10.31
2023-04-14T09:09:57.019Z,10.30
2023-04-14T09:10:56.969Z,10.49
2023-04-14T09:11:56.963Z,10.37
2023-04-14T09:12:56.953Z,10.38
2023-04-14T09:13:56.955Z,10.40
2023-04-14T09:14:56.969Z,10.54
2023-04-14T09:15:56.940Z,10.30
2023-04-14T09:16:56.961Z,9.94
2023-04-14T09:17:56.976Z,9.94
2023-04-14T09:18:56.953Z,10.10
2023-04-14T09:20:38.038Z,10.31
2023-04-14T09:21:30.246Z,10.60
2023-04-14T09:21:58.046Z,10.69
2023-04-14T09:22:56.887Z,11.07
2023-04-14T09:23:56.889Z,11.07
2023-04-14T09:24:56.900Z,11.26
2023-04-14T09:25:56.866Z,11.36
2023-04-14T09:26:56.855Z,11.54
2023-04-14T09:27:56.848Z,11.78
2023-04-14T09:28:56.935Z,11.86
2023-04-14T09:29:56.861Z,11.77
2023-04-14T09:30:56.842Z,11.75
2023-04-14T09:31:56.816Z,11.75
2023-04-14T09:32:56.875Z,11.57
2023-04-14T09:33:56.838Z,11.77
2023-04-14T09:34:58.505Z,11.83
2023-04-14T09:35:56.812Z,11.88
2023-04-14T09:36:56.774Z,12.00
2023-04-14T09:37:56.765Z,12.22
2023-04-14T09:38:56.766Z,12.12
2023-04-14T09:39:56.753Z,12.03
2023-04-14T09:40:57.189Z,12.07
2023-04-14T09:41:57.740Z,12.10
2023-04-14T09:42:56.759Z,11.95
2023-04-14T09:43:56.720Z,11.52
2023-04-14T09:44:56.739Z,11.35
2023-04-14T09:45:56.933Z,11.40
2023-04-14T09:46:56.857Z,11.75
2023-04-14T09:47:56.701Z,12.02
2023-04-14T09:48:56.803Z,12.18
2023-04-14T09:49:56.741Z,12.06
2023-04-14T09:50:56.691Z,12.43
2023-04-14T09:51:56.669Z,12.61
2023-04-14T09:52:56.640Z,12.67
2023-04-14T09:53:56.641Z,12.80
2023-04-14T09:54:56.667Z,12.80
2023-04-14T09:55:56.674Z,12.91
2023-04-14T09:56:56.617Z,12.83
2023-04-14T09:57:56.625Z,12.98
2023-04-14T09:58:56.600Z,13.18
2023-04-14T09:59:56.593Z,13.27
2023-04-14T10:00:56.611Z,13.49
2023-04-14T10:01:56.642Z,13.19
2023-04-14T10:02:56.803Z,12.98
2023-04-14T10:03:56.701Z,12.87
2023-04-14T10:04:56.625Z,12.86
2023-04-14T10:05:56.580Z,12.58
2023-04-14T10:06:56.543Z,12.32
2023-04-14T10:07:56.532Z,12.39
2023-04-14T10:08:56.533Z,12.28
2023-04-14T10:09:56.537Z,12.17
2023-04-14T10:10:56.545Z,12.55
2023-04-14T10:11:56.502Z,12.62
2023-04-14T10:12:56.498Z,12.42
2023-04-14T10:13:56.514Z,12.55
2023-04-14T10:14:56.473Z,12.76
2023-04-14T10:15:56.557Z,12.94
2023-04-14T10:16:56.464Z,13.08
2023-04-14T10:17:56.495Z,13.49
2023-04-14T10:18:56.453Z,13.01
2023-04-14T10:19:56.445Z,12.50
2023-04-14T10:20:56.457Z,11.78
2023-04-14T10:21:56.462Z,11.65
2023-04-14T10:22:56.422Z,11.69
2023-04-14T10:23:57.452Z,11.52
2023-04-14T10:24:56.407Z,11.54
2023-04-14T10:25:56.424Z,11.62
2023-04-14T10:26:56.385Z,12.21
2023-04-14T10:27:56.398Z,12.68
2023-04-14T10:28:56.504Z,13.15
2023-04-14T10:29:56.371Z,13.11
2023-04-14T10:30:56.401Z,12.09
2023-04-14T10:31:56.391Z,11.87
2023-04-14T10:32:56.381Z,11.72
2023-04-14T10:33:56.338Z,12.03
2023-04-14T10:34:56.339Z,12.20
2023-04-14T10:35:56.358Z,12.53
2023-04-14T10:36:56.314Z,12.02
2023-04-14T10:37:56.350Z,12.45
2023-04-14T10:38:56.298Z,12.83
2023-04-14T10:39:56.304Z,13.16
2023-04-14T10:40:56.315Z,13.39
2023-04-14T10:41:56.274Z,13.39
2023-04-14T10:42:56.973Z,13.37
2023-04-14T10:43:56.261Z,12.60
2023-04-14T10:44:56.602Z,12.42
2023-04-14T10:45:56.901Z,12.55
2023-04-14T10:46:56.364Z,12.83
2023-04-14T10:47:56.286Z,12.78
2023-04-14T10:48:56.225Z,12.57
2023-04-14T10:49:56.225Z,12.15
2023-04-14T10:50:56.356Z,12.32
2023-04-14T10:51:56.209Z,12.72
2023-04-14T10:52:56.371Z,13.19
2023-04-14T10:54:29.013Z,13.60
2023-04-14T10:54:56.181Z,13.71
2023-04-14T10:55:56.205Z,13.42
2023-04-14T10:56:56.172Z,13.54
2023-04-14T10:57:56.158Z,13.37
2023-04-14T10:58:56.154Z,13.42
2023-04-14T10:59:56.162Z,13.59
2023-04-14T11:00:56.157Z,13.57
2023-04-14T11:01:56.270Z,13.23
2023-04-14T11:02:56.221Z,13.54
2023-04-14T11:03:56.332Z,13.90
2023-04-14T11:04:56.097Z,14.10
2023-04-14T11:05:56.118Z,14.50
2023-04-14T11:06:56.127Z,14.77
2023-04-14T11:07:56.090Z,15.10
2023-04-14T11:08:56.069Z,15.04
2023-04-14T11:09:56.067Z,14.91
2023-04-14T11:10:56.050Z,14.44
2023-04-14T11:11:56.093Z,13.87
2023-04-14T11:12:56.044Z,13.60
2023-04-14T11:13:56.042Z,13.71
2023-04-14T11:14:56.029Z,13.50
2023-04-14T11:15:56.025Z,13.57
2023-04-14T11:17:04.148Z,13.41
2023-04-14T11:17:58.006Z,13.41
2023-04-14T11:18:55.985Z,12.95
2023-04-14T11:19:55.986Z,13.09
2023-04-14T11:20:55.984Z,12.94
2023-04-14T11:21:56.007Z,12.95
2023-04-14T11:22:55.965Z,12.86
2023-04-14T11:23:55.964Z,12.87
2023-04-14T11:24:55.954Z,12.64
2023-04-14T11:25:55.951Z,12.47
2023-04-14T11:26:55.993Z,12.70
2023-04-14T11:27:55.971Z,12.76
2023-04-14T11:28:55.918Z,13.30
2023-04-14T11:29:55.932Z,13.63
2023-04-14T11:30:55.891Z,13.56
2023-04-14T11:31:55.974Z,13.63
2023-04-14T11:32:55.937Z,13.62
2023-04-14T11:33:55.879Z,13.33
2023-04-14T11:34:55.889Z,12.93
2023-04-14T11:35:55.914Z,12.90
2023-04-14T11:36:55.903Z,12.97
2023-04-14T11:37:55.873Z,13.13
2023-04-14T11:38:55.865Z,13.49
2023-04-14T11:39:55.830Z,13.95
2023-04-14T11:40:55.824Z,14.00
2023-04-14T11:41:55.866Z,14.10
2023-04-14T11:42:55.816Z,13.87
2023-04-14T11:43:55.817Z,14.10
2023-04-14T11:44:55.800Z,14.51
2023-04-14T11:45:55.821Z,14.70
2023-04-14T11:46:55.825Z,14.68
2023-04-14T11:47:55.874Z,14.00
2023-04-14T11:48:55.778Z,13.96
2023-04-14T11:49:55.764Z,13.35
2023-04-14T11:50:55.755Z,13.15
2023-04-14T11:51:55.791Z,12.79
2023-04-14T11:52:56.758Z,12.85
2023-04-14T11:53:55.741Z,12.47
2023-04-14T11:54:55.769Z,12.50
2023-04-14T11:55:55.724Z,12.65
2023-04-14T11:56:55.744Z,12.78
2023-04-14T11:57:55.736Z,12.67
2023-04-14T11:58:55.701Z,12.90
2023-04-14T11:59:55.708Z,13.12
2023-04-14T12:00:56.149Z,13.31
2023-04-14T12:01:56.717Z,12.98
2023-04-14T12:02:55.811Z,12.72
2023-04-14T12:03:55.843Z,12.31
2023-04-14T12:04:55.796Z,12.29
2023-04-14T12:05:55.642Z,12.20
2023-04-14T12:06:55.632Z,12.28
2023-04-14T12:07:55.662Z,12.15
2023-04-14T12:08:55.623Z,12.09
2023-04-14T12:09:55.622Z,11.97
2023-04-14T12:10:55.611Z,11.81
2023-04-14T12:11:55.746Z,11.86
2023-04-14T12:12:55.593Z,12.04
2023-04-14T12:13:55.614Z,12.15
2023-04-14T12:14:55.584Z,12.21
2023-04-14T12:15:55.586Z,12.09
2023-04-14T12:16:55.615Z,12.49
2023-04-14T12:17:55.830Z,12.42
2023-04-14T12:18:55.572Z,12.60
2023-04-14T12:19:55.535Z,12.40
2023-04-14T12:20:55.570Z,12.35
2023-04-14T12:21:55.525Z,12.47
2023-04-14T12:22:55.534Z,12.62
2023-04-14T12:23:55.523Z,12.85
2023-04-14T12:24:55.499Z,12.82
2023-04-14T12:25:55.476Z,12.64
2023-04-14T12:26:56.488Z,12.72
2023-04-14T12:27:57.221Z,12.65
2023-04-14T12:28:56.499Z,12.55
2023-04-14T12:29:55.473Z,12.75
2023-04-14T12:30:55.445Z,12.76
2023-04-14T12:31:55.518Z,12.83
2023-04-14T12:32:55.498Z,12.62
2023-04-14T12:33:56.776Z,12.65
2023-04-14T12:34:55.424Z,12.55
2023-04-14T12:35:55.418Z,12.72
2023-04-14T12:36:55.408Z,12.79
2023-04-14T12:37:55.424Z,12.75
2023-04-14T12:38:55.423Z,13.01
2023-04-14T12:39:55.373Z,12.83
2023-04-14T12:40:55.372Z,12.90
2023-04-14T12:41:55.364Z,12.93
2023-04-14T12:42:55.393Z,12.58
2023-04-14T12:43:55.344Z,12.47
2023-04-14T12:44:55.348Z,12.75
2023-04-14T12:45:55.389Z,12.90
2023-04-14T12:46:55.462Z,12.40
2023-04-14T12:47:55.355Z,12.25
2023-04-14T12:48:55.314Z,12.36
2023-04-14T12:49:55.301Z,12.28
2023-04-14T12:50:55.358Z,12.20
2023-04-14T12:51:55.284Z,12.35
2023-04-14T12:52:55.296Z,12.55
2023-04-14T12:53:55.274Z,12.75
2023-04-14T12:54:55.270Z,12.70
2023-04-14T12:55:55.254Z,12.80
2023-04-14T12:56:55.245Z,12.62
2023-04-14T12:57:55.273Z,12.82
2023-04-14T12:58:55.246Z,12.90
2023-04-14T12:59:56.219Z,12.90
2023-04-14T13:00:55.258Z,12.87
2023-04-14T13:01:55.348Z,12.79
2023-04-14T13:02:55.371Z,12.91
2023-04-14T13:03:55.810Z,12.53
2023-04-14T13:04:55.199Z,12.54
2023-04-14T13:05:55.183Z,12.78
2023-04-14T13:06:55.169Z,12.62
2023-04-14T13:07:55.190Z,12.78
2023-04-14T13:08:55.165Z,12.62
2023-04-14T13:09:55.154Z,12.54
2023-04-14T13:10:55.147Z,12.62